Airfield :







YOU CAN JOIN US ON...

 
LOGIN :

Register | Disclaimer

   EN    FR    IT 

 









Legend :    VFR   Marginal VFR   IFR   Intensive IFR   Very Intensive IFR
Visi :
Ceiling :
>= 8 km
>= 3000ft
5 to 8 km
1000 to 3000 ft
1500m to 5 km
500 to 1000 ft
800 to 1500m
200 to 500 ft
< 800m
< 200 ft
Symbols :   Thunderstorms  Fog  Heavy snow  Heavy precipitations  Wind > 20 kt






- Airport Elevation : 270 ft
- IATA code : YMX


CYMX - Montreal International Mirabel

CURRENT METAR :
  • 250300Z 00000KT 25SM FEW150 07/05 A3031 RMK AC1 AC TR SLP269

EXPIRED METARs :
  • 250200Z 00000KT 25SM FEW230 10/04 A3031 RMK CI1 SLP269
  • 250100Z 18003KT 25SM FEW140 FEW240 11/05 A3030 RMK AC1CI1 AC TR SLP263

TAF TAF CYMX
Valid from the 25 at 00:00 until the 26 at 00:00 UTC


242340Z 2500/2524 VRB03KT P6SM FEW160 SCT240
FM250200 VRB03KT P6SM SKC
BECMG 2516/2518 18005KT FEW060 RMK NXT FCST BY 250600Z
CZUL FIR / North America



MET'MAP, your aeronautical weather chart ! - Copyright ORBIFLY December 2007 - Disclaimer

ORBIFLY MET'MAP TEAM :

Programming & Development : Alexandra Zaïnal
Original concept : Baudouin d'Aumeries
Technical & hardware support : Manuel Goepfert
Assistance : Marc-Olivier Méhu

Contact : metmap@orbifly.com




SOURCES & CREDITS :

   NOAA